createdAt,value
2022-09-09T00:02:21.025Z,1.65
2022-09-09T00:05:20.697Z,1.90
2022-09-09T00:07:53.381Z,2.22
2022-09-09T00:10:40.614Z,1.33
2022-09-09T00:14:05.320Z,1.40
2022-09-09T00:16:41.398Z,1.88
2022-09-09T00:19:24.570Z,1.85
2022-09-09T00:22:19.795Z,1.50
2022-09-09T00:24:56.459Z,1.55
2022-09-09T00:27:48.473Z,1.42
2022-09-09T00:30:23.665Z,1.30
2022-09-09T00:32:59.257Z,1.73
2022-09-09T00:35:47.896Z,1.67
2022-09-09T00:38:30.174Z,1.25
2022-09-09T00:41:10.444Z,1.73
2022-09-09T00:43:41.653Z,1.63
2022-09-09T00:46:27.955Z,1.67
2022-09-09T00:49:13.559Z,1.50
2022-09-09T00:51:51.386Z,1.63
2022-09-09T00:54:46.362Z,1.50
2022-09-09T00:57:36.008Z,1.20
2022-09-09T01:00:23.531Z,1.90
2022-09-09T01:03:09.815Z,1.83
2022-09-09T01:05:52.006Z,1.63
2022-09-09T01:08:44.037Z,1.90
2022-09-09T01:11:50.664Z,2.00
2022-09-09T01:14:28.376Z,1.70
2022-09-09T01:17:06.557Z,1.77
2022-09-09T01:22:26.514Z,1.88
2022-09-09T01:25:22.594Z,1.63
2022-09-09T01:28:28.236Z,1.38
2022-09-09T01:31:07.781Z,1.40
2022-09-09T01:33:42.886Z,1.60
2022-09-09T01:36:59.227Z,1.80
2022-09-09T01:39:28.714Z,2.00
2022-09-09T01:42:05.960Z,1.77
2022-09-09T01:44:36.181Z,1.70
2022-09-09T01:47:05.376Z,1.75
2022-09-09T01:49:33.945Z,1.40
2022-09-09T01:52:09.297Z,1.65
2022-09-09T01:54:40.157Z,1.50
2022-09-09T01:57:57.438Z,1.50
2022-09-09T02:00:25.312Z,1.65
2022-09-09T02:03:22.484Z,1.98
2022-09-09T02:06:15.890Z,1.40
2022-09-09T02:08:57.999Z,1.50
2022-09-09T02:11:29.996Z,1.58
2022-09-09T02:14:26.275Z,1.58
2022-09-09T02:17:05.379Z,1.38
2022-09-09T02:20:08.983Z,1.65
2022-09-09T02:22:57.004Z,1.60
2022-09-09T02:25:33.240Z,1.30
2022-09-09T02:28:13.797Z,1.95
2022-09-09T02:30:48.261Z,1.63
2022-09-09T02:33:17.621Z,1.80
2022-09-09T02:35:54.916Z,1.73
2022-09-09T02:38:30.768Z,1.77
2022-09-09T02:41:04.953Z,1.65
2022-09-09T02:43:34.382Z,1.40
2022-09-09T02:46:52.155Z,1.77
2022-09-09T02:50:13.945Z,2.13
2022-09-09T02:53:16.013Z,2.03
2022-09-09T02:56:10.341Z,2.67
2022-09-09T02:58:42.115Z,2.40
2022-09-09T03:01:10.303Z,2.70
2022-09-09T03:03:37.902Z,3.05
2022-09-09T03:06:11.150Z,2.90
2022-09-09T03:08:41.643Z,3.08
2022-09-09T03:11:10.642Z,3.70
2022-09-09T03:13:39.139Z,3.35
2022-09-09T03:16:07.379Z,4.00
2022-09-09T03:18:42.084Z,3.42
2022-09-09T03:21:09.632Z,3.90
2022-09-09T03:23:39.140Z,3.75
2022-09-09T03:26:07.510Z,3.80
2022-09-09T03:28:41.561Z,3.83
2022-09-09T03:31:11.499Z,3.78
2022-09-09T03:33:44.344Z,3.53
2022-09-09T03:36:16.124Z,3.38
2022-09-09T03:38:43.980Z,3.38
2022-09-09T03:41:11.973Z,4.35
2022-09-09T03:43:41.096Z,3.65
2022-09-09T03:46:08.817Z,3.42
2022-09-09T03:48:36.670Z,3.83
2022-09-09T03:51:07.487Z,4.07
2022-09-09T03:53:36.847Z,3.97
2022-09-09T03:56:07.758Z,3.88
2022-09-09T03:58:37.870Z,3.80
2022-09-09T04:01:14.833Z,4.28
2022-09-09T04:03:45.974Z,4.07
2022-09-09T04:06:16.063Z,3.77
2022-09-09T04:08:49.669Z,4.05
2022-09-09T04:11:17.982Z,3.97
2022-09-09T04:13:47.606Z,3.83
2022-09-09T04:16:16.209Z,3.70
2022-09-09T04:18:45.222Z,4.13
2022-09-09T04:21:16.529Z,4.13
2022-09-09T04:23:44.252Z,3.53
2022-09-09T04:26:11.896Z,3.92
2022-09-09T04:28:40.353Z,4.00
2022-09-09T04:31:24.656Z,4.20
2022-09-09T04:33:55.518Z,3.63
2022-09-09T04:36:23.945Z,4.03
2022-09-09T04:38:55.865Z,3.97
2022-09-09T04:41:23.845Z,4.50
2022-09-09T04:43:54.608Z,3.88
2022-09-09T04:46:24.704Z,3.53
2022-09-09T04:48:53.746Z,3.72
2022-09-09T04:51:23.025Z,3.97
2022-09-09T04:53:55.218Z,3.28
2022-09-09T04:56:23.699Z,3.08
2022-09-09T04:58:59.503Z,3.50
2022-09-09T05:01:39.358Z,3.97
2022-09-09T05:04:07.022Z,3.92
2022-09-09T05:06:37.156Z,4.07
2022-09-09T05:09:05.893Z,4.60
2022-09-09T05:11:37.773Z,4.07
2022-09-09T05:14:28.945Z,3.47
2022-09-09T05:16:57.266Z,3.30
2022-09-09T05:19:25.542Z,3.72
2022-09-09T05:21:54.750Z,3.40
2022-09-09T05:24:29.040Z,4.10
2022-09-09T05:27:00.923Z,3.70
2022-09-09T05:29:29.345Z,3.53
2022-09-09T05:31:57.926Z,3.10
2022-09-09T05:34:26.509Z,3.20
2022-09-09T05:36:54.738Z,2.70
2022-09-09T05:39:24.043Z,3.17
2022-09-09T05:41:52.722Z,2.55
2022-09-09T05:44:20.816Z,2.50
2022-09-09T05:46:48.633Z,3.30
2022-09-09T05:49:16.806Z,2.95
2022-09-09T05:51:45.566Z,2.77
2022-09-09T05:54:16.655Z,3.00
2022-09-09T05:56:51.822Z,3.28
2022-09-09T05:59:20.993Z,2.90
2022-09-09T06:01:48.806Z,3.08
2022-09-09T06:04:25.992Z,3.20
2022-09-09T06:06:54.152Z,2.80
2022-09-09T06:09:24.012Z,3.05
2022-09-09T06:11:51.835Z,2.67
2022-09-09T06:14:22.369Z,3.13
2022-09-09T06:16:53.001Z,2.60
2022-09-09T06:19:27.498Z,3.30
2022-09-09T06:21:58.088Z,2.33
2022-09-09T06:24:26.012Z,2.72
2022-09-09T06:26:55.044Z,3.00
2022-09-09T06:29:28.364Z,2.95
2022-09-09T06:31:56.345Z,2.90
2022-09-09T06:34:27.268Z,2.75
2022-09-09T06:36:59.471Z,2.33
2022-09-09T06:39:32.269Z,2.50
2022-09-09T06:42:00.774Z,2.22
2022-09-09T06:44:46.905Z,2.70
2022-09-09T06:47:23.045Z,3.13
2022-09-09T06:49:51.895Z,2.88
2022-09-09T06:52:20.453Z,2.63
2022-09-09T06:54:49.053Z,2.40
2022-09-09T06:57:36.374Z,2.90
2022-09-09T07:00:07.760Z,2.92
2022-09-09T07:02:40.173Z,2.90
2022-09-09T07:05:10.367Z,2.78
2022-09-09T07:07:39.206Z,2.50
2022-09-09T07:10:08.664Z,2.25
2022-09-09T07:12:38.674Z,2.20
2022-09-09T07:15:10.789Z,2.20
2022-09-09T07:17:42.469Z,2.35
2022-09-09T07:20:10.433Z,2.33
2022-09-09T07:22:38.254Z,2.17
2022-09-09T07:25:07.547Z,2.13
2022-09-09T07:27:35.264Z,2.42
2022-09-09T07:30:03.647Z,2.40
2022-09-09T07:32:33.771Z,2.20
2022-09-09T07:35:01.208Z,2.60
2022-09-09T07:37:29.740Z,2.38
2022-09-09T07:39:57.771Z,2.47
2022-09-09T07:42:25.495Z,2.65
2022-09-09T07:44:55.953Z,2.80
2022-09-09T07:47:25.938Z,2.22
2022-09-09T07:49:53.674Z,2.33
2022-09-09T07:52:27.671Z,2.33
2022-09-09T07:55:01.399Z,2.00
2022-09-09T07:57:33.795Z,2.20
2022-09-09T08:00:05.736Z,2.40
2022-09-09T08:02:40.078Z,1.90
2022-09-09T08:05:09.813Z,2.20
2022-09-09T08:10:07.426Z,2.05
2022-09-09T08:12:37.810Z,1.92
2022-09-09T08:15:06.882Z,2.40
2022-09-09T08:17:35.566Z,2.10
2022-09-09T08:20:07.475Z,2.30
2022-09-09T08:22:38.788Z,2.25
2022-09-09T08:25:08.418Z,2.33
2022-09-09T08:27:38.524Z,2.00
2022-09-09T08:30:06.851Z,2.25
2022-09-09T08:32:36.290Z,2.70
2022-09-09T08:35:08.120Z,2.25
2022-09-09T08:37:36.514Z,2.25
2022-09-09T08:40:04.607Z,2.67
2022-09-09T08:42:47.969Z,2.42
2022-09-09T08:45:40.340Z,2.15
2022-09-09T08:48:53.699Z,2.22
2022-09-09T08:51:22.164Z,1.92
2022-09-09T08:53:59.062Z,2.10
2022-09-09T08:56:32.538Z,2.10
2022-09-09T08:59:04.310Z,2.10
2022-09-09T09:01:51.519Z,2.25
2022-09-09T09:04:51.545Z,2.20
2022-09-09T09:07:44.849Z,2.20
2022-09-09T09:10:41.813Z,2.25
2022-09-09T09:13:30.967Z,2.30
2022-09-09T09:16:20.765Z,2.58
2022-09-09T09:18:48.752Z,2.70
2022-09-09T09:21:45.004Z,3.00
2022-09-09T09:24:40.756Z,2.88
2022-09-09T09:27:16.809Z,3.20
2022-09-09T09:30:21.090Z,2.75
2022-09-09T09:32:44.851Z,2.70
2022-09-09T09:35:14.576Z,3.45
2022-09-09T09:40:36.495Z,3.20
2022-09-09T09:43:09.720Z,3.08
2022-09-09T09:46:06.823Z,3.40
2022-09-09T09:48:36.692Z,3.75
2022-09-09T09:51:16.721Z,3.45
2022-09-09T09:53:45.905Z,3.47
2022-09-09T09:56:17.276Z,3.40
2022-09-09T09:58:53.948Z,3.47
2022-09-09T10:01:32.519Z,3.53
2022-09-09T10:04:14.796Z,3.30
2022-09-09T10:06:42.890Z,3.22
2022-09-09T10:09:29.989Z,3.80
2022-09-09T10:12:18.645Z,4.05
2022-09-09T10:15:29.205Z,3.80
2022-09-09T10:18:43.286Z,3.83
2022-09-09T10:21:40.845Z,3.97
2022-09-09T10:24:14.543Z,4.32
2022-09-09T10:27:48.060Z,4.10
2022-09-09T10:30:31.881Z,4.35
2022-09-09T10:33:17.190Z,4.30
2022-09-09T10:35:59.678Z,4.28
2022-09-09T10:38:39.076Z,3.90
2022-09-09T10:41:22.543Z,4.53
2022-09-09T10:44:24.207Z,4.70
2022-09-09T10:47:27.886Z,4.82
2022-09-09T10:54:00.772Z,5.07
2022-09-09T10:56:30.318Z,4.70
2022-09-09T10:59:16.821Z,4.32
2022-09-09T11:02:03.729Z,4.95
2022-09-09T11:04:44.047Z,5.03
2022-09-09T11:09:53.521Z,5.28
2022-09-09T11:12:24.987Z,4.72
2022-09-09T11:15:07.811Z,5.05
2022-09-09T11:17:47.069Z,4.65
2022-09-09T11:20:16.314Z,5.00
2022-09-09T11:22:52.132Z,4.82
2022-09-09T11:25:27.525Z,4.90
2022-09-09T11:28:38.095Z,4.85
2022-09-09T11:31:12.673Z,5.60
2022-09-09T11:34:09.347Z,5.50
2022-09-09T11:36:47.448Z,5.07
2022-09-09T11:39:52.910Z,5.25
2022-09-09T11:42:25.455Z,5.80
2022-09-09T11:44:58.042Z,5.32
2022-09-09T11:47:31.385Z,5.47
2022-09-09T11:50:15.997Z,5.47
2022-09-09T11:52:50.627Z,5.80
2022-09-09T11:55:27.757Z,5.07
2022-09-09T11:58:23.493Z,5.78
2022-09-09T12:00:51.533Z,6.65
2022-09-09T12:03:37.885Z,7.03
2022-09-09T12:06:34.028Z,6.45
2022-09-09T12:09:28.323Z,6.57
2022-09-09T12:12:08.761Z,7.25
2022-09-09T12:15:01.466Z,6.30
2022-09-09T12:17:37.639Z,7.10
2022-09-09T12:20:20.229Z,7.45
2022-09-09T12:23:11.856Z,7.40
2022-09-09T12:26:07.477Z,7.82
2022-09-09T12:29:05.601Z,7.85
2022-09-09T12:32:05.401Z,7.55
2022-09-09T12:35:02.296Z,7.60
2022-09-09T12:37:50.292Z,8.02
2022-09-09T12:40:32.528Z,7.80
2022-09-09T12:43:02.344Z,7.45
2022-09-09T12:45:34.021Z,7.47
2022-09-09T12:48:10.564Z,7.85
2022-09-09T12:50:47.234Z,8.50
2022-09-09T12:53:32.920Z,8.30
2022-09-09T12:56:09.565Z,8.57
2022-09-09T12:58:41.243Z,9.15
2022-09-09T13:01:26.203Z,8.52
2022-09-09T13:03:55.258Z,8.98
2022-09-09T13:06:32.559Z,8.40
2022-09-09T13:09:03.184Z,8.88
2022-09-09T13:11:36.555Z,8.48
2022-09-09T13:14:05.121Z,7.80
2022-09-09T13:16:40.447Z,9.02
2022-09-09T13:19:18.644Z,7.45
2022-09-09T13:21:46.613Z,8.27
2022-09-09T13:24:34.175Z,8.65
2022-09-09T13:27:27.527Z,8.00
2022-09-09T13:29:57.702Z,8.07
2022-09-09T13:35:02.642Z,7.72
2022-09-09T13:37:38.554Z,7.72
2022-09-09T13:40:18.093Z,8.60
2022-09-09T13:42:46.554Z,9.00
2022-09-09T13:45:24.231Z,8.93
2022-09-09T13:47:53.791Z,8.77
2022-09-09T13:50:28.623Z,8.88
2022-09-09T13:53:00.808Z,9.13
2022-09-09T13:55:31.165Z,8.60
2022-09-09T13:58:03.683Z,8.60
2022-09-09T14:00:35.605Z,9.80
2022-09-09T14:03:03.555Z,9.88
2022-09-09T14:05:35.170Z,9.57
2022-09-09T14:08:07.277Z,10.05
2022-09-09T14:10:39.337Z,9.77
2022-09-09T14:13:07.425Z,10.25
2022-09-09T14:15:35.254Z,10.25
2022-09-09T14:18:03.238Z,10.23
2022-09-09T14:20:31.502Z,10.35
2022-09-09T14:23:03.408Z,9.73
2022-09-09T14:25:32.398Z,10.35
2022-09-09T14:28:00.304Z,9.90
2022-09-09T14:30:27.918Z,10.05
2022-09-09T14:32:55.568Z,10.02
2022-09-09T14:35:23.293Z,10.50
2022-09-09T14:37:51.854Z,9.75
2022-09-09T14:40:20.189Z,11.88
2022-09-09T14:42:47.603Z,9.93
2022-09-09T14:45:15.397Z,11.20
2022-09-09T14:47:43.758Z,11.55
2022-09-09T14:50:13.537Z,10.52
2022-09-09T14:52:41.174Z,10.70
2022-09-09T14:55:09.680Z,11.43
2022-09-09T14:57:37.382Z,11.60
2022-09-09T15:00:06.510Z,11.00
2022-09-09T15:02:35.044Z,10.88
2022-09-09T15:05:02.850Z,12.15
2022-09-09T15:07:33.066Z,11.35
2022-09-09T15:10:01.108Z,12.63
2022-09-09T15:12:29.629Z,11.88
2022-09-09T15:14:57.218Z,11.90
2022-09-09T15:17:26.864Z,12.48
2022-09-09T15:19:55.869Z,12.87
2022-09-09T15:22:25.385Z,12.50
2022-09-09T15:27:21.655Z,12.00
2022-09-09T15:29:49.180Z,12.60
2022-09-09T15:32:16.999Z,13.60
2022-09-09T15:34:44.874Z,13.57
2022-09-09T15:37:16.163Z,13.38
2022-09-09T15:39:44.964Z,15.20
2022-09-09T15:42:12.661Z,14.35
2022-09-09T15:44:45.094Z,15.07
2022-09-09T15:47:14.631Z,14.00
2022-09-09T15:49:42.721Z,14.75
2022-09-09T15:52:12.245Z,14.30
2022-09-09T15:54:41.172Z,14.43
2022-09-09T15:57:13.566Z,15.52
2022-09-09T15:59:41.653Z,14.15
2022-09-09T16:02:11.149Z,14.00
2022-09-09T16:04:39.419Z,14.65
2022-09-09T16:07:07.906Z,15.00
2022-09-09T16:09:36.619Z,15.30
2022-09-09T16:12:07.775Z,16.05
2022-09-09T16:14:36.975Z,14.60
2022-09-09T16:17:07.088Z,15.18
2022-09-09T16:22:07.565Z,14.43
2022-09-09T16:24:35.874Z,15.25
2022-09-09T16:27:04.430Z,16.00
2022-09-09T16:29:33.344Z,14.88
2022-09-09T16:32:04.190Z,14.88
2022-09-09T16:34:34.524Z,15.60
2022-09-09T16:37:03.186Z,13.13
2022-09-09T16:39:30.900Z,15.70
2022-09-09T16:41:59.396Z,14.55
2022-09-09T16:44:27.305Z,16.10
2022-09-09T16:47:00.421Z,15.50
2022-09-09T16:49:32.258Z,14.95
2022-09-09T16:52:02.092Z,15.15
2022-09-09T16:54:30.351Z,14.70
2022-09-09T16:56:59.913Z,15.02
2022-09-09T16:59:27.674Z,15.65
2022-09-09T17:01:55.932Z,16.50
2022-09-09T17:04:27.650Z,15.43
2022-09-09T17:06:56.909Z,16.23
2022-09-09T17:09:29.775Z,17.10
2022-09-09T17:11:57.814Z,17.08
2022-09-09T17:14:25.715Z,15.88
2022-09-09T17:16:53.728Z,18.00
2022-09-09T17:19:21.428Z,17.77
2022-09-09T17:22:14.887Z,17.67
2022-09-09T17:24:39.639Z,18.90
2022-09-09T17:27:08.359Z,19.50
2022-09-09T17:29:37.110Z,16.98
2022-09-09T17:32:06.767Z,18.88
2022-09-09T17:37:07.085Z,17.90
2022-09-09T17:39:35.512Z,18.10
2022-09-09T17:42:04.228Z,17.55
2022-09-09T17:44:33.566Z,19.08
2022-09-09T17:47:01.692Z,18.20
2022-09-09T17:49:29.724Z,18.20
2022-09-09T17:51:57.705Z,18.40
2022-09-09T17:54:25.671Z,19.15
2022-09-09T17:56:54.728Z,18.33
2022-09-09T17:59:22.631Z,18.40
2022-09-09T18:02:00.865Z,18.15
2022-09-09T18:04:29.128Z,18.00
2022-09-09T18:06:57.192Z,18.60
2022-09-09T18:09:28.163Z,19.25
2022-09-09T18:12:02.562Z,18.27
2022-09-09T18:14:32.669Z,17.08
2022-09-09T18:17:04.253Z,17.90
2022-09-09T18:19:33.602Z,18.60
2022-09-09T18:22:05.024Z,18.48
2022-09-09T18:24:36.532Z,19.65
2022-09-09T18:27:04.679Z,18.55
2022-09-09T18:29:35.000Z,19.25
2022-09-09T18:32:03.654Z,19.33
2022-09-09T18:34:32.726Z,17.95
2022-09-09T18:37:01.072Z,18.42
2022-09-09T18:39:30.244Z,18.17
2022-09-09T18:42:01.768Z,19.63
2022-09-09T18:44:34.866Z,18.02
2022-09-09T18:47:03.943Z,19.17
2022-09-09T18:49:33.569Z,19.10
2022-09-09T18:52:04.828Z,18.75
2022-09-09T18:54:34.541Z,18.45
2022-09-09T18:57:03.075Z,19.70
2022-09-09T18:59:32.127Z,18.20
2022-09-09T19:02:00.457Z,19.30
2022-09-09T19:04:29.499Z,19.08
2022-09-09T19:06:58.445Z,19.23
2022-09-09T19:09:32.082Z,19.83
2022-09-09T19:12:02.050Z,19.45
2022-09-09T19:14:31.087Z,19.65
2022-09-09T19:17:00.683Z,19.83
2022-09-09T19:19:32.837Z,20.00
2022-09-09T19:22:02.776Z,19.05
2022-09-09T19:24:33.645Z,19.45
2022-09-09T19:27:07.010Z,19.35
2022-09-09T19:29:39.492Z,19.45
2022-09-09T19:34:57.529Z,19.30
2022-09-09T19:37:26.207Z,19.25
2022-09-09T19:39:54.057Z,18.23
2022-09-09T19:42:22.287Z,19.08
2022-09-09T19:44:51.579Z,20.25
2022-09-09T19:47:20.257Z,18.30
2022-09-09T19:49:48.489Z,19.30
2022-09-09T19:52:18.599Z,18.38
2022-09-09T19:54:47.528Z,19.73
2022-09-09T19:57:16.358Z,20.63
2022-09-09T19:59:46.178Z,18.25
2022-09-09T20:02:17.197Z,19.08
2022-09-09T20:04:46.265Z,18.67
2022-09-09T20:07:15.099Z,19.10
2022-09-09T20:09:43.473Z,19.10
2022-09-09T20:12:12.298Z,18.10
2022-09-09T20:14:40.482Z,19.38
2022-09-09T20:17:10.539Z,18.83
2022-09-09T20:19:47.453Z,18.80
2022-09-09T20:22:17.965Z,19.85
2022-09-09T20:24:47.099Z,19.10
2022-09-09T20:27:15.409Z,19.02
2022-09-09T20:29:43.258Z,18.65
2022-09-09T20:32:12.982Z,18.85
2022-09-09T20:34:44.182Z,19.48
2022-09-09T20:37:17.914Z,18.80
2022-09-09T20:39:46.689Z,19.67
2022-09-09T20:42:16.083Z,19.08
2022-09-09T20:44:44.372Z,18.58
2022-09-09T20:47:12.965Z,19.02
2022-09-09T20:49:40.925Z,19.02
2022-09-09T20:52:11.151Z,18.88
2022-09-09T20:54:39.703Z,18.40
2022-09-09T20:57:08.721Z,18.25
2022-09-09T20:59:37.486Z,18.73
2022-09-09T21:02:05.870Z,19.00
2022-09-09T21:04:33.884Z,18.92
2022-09-09T21:07:02.739Z,20.00
2022-09-09T21:09:31.260Z,17.70
2022-09-09T21:11:59.150Z,18.92
2022-09-09T21:14:27.574Z,19.23
2022-09-09T21:16:55.992Z,19.10
2022-09-09T21:19:25.065Z,18.52
2022-09-09T21:21:52.937Z,18.33
2022-09-09T21:24:23.530Z,19.05
2022-09-09T21:26:51.266Z,18.90
2022-09-09T21:29:19.493Z,18.17
2022-09-09T21:31:47.212Z,19.33
2022-09-09T21:34:15.497Z,18.38
2022-09-09T21:36:43.622Z,19.65
2022-09-09T21:39:11.201Z,18.10
2022-09-09T21:41:39.083Z,19.40
2022-09-09T21:44:09.198Z,19.05
2022-09-09T21:46:37.664Z,17.83
2022-09-09T21:49:05.488Z,18.30
2022-09-09T21:51:33.641Z,19.40
2022-09-09T21:54:01.715Z,19.52
2022-09-09T21:56:30.804Z,18.65
2022-09-09T21:59:04.207Z,19.83
2022-09-09T22:01:33.637Z,19.63
2022-09-09T22:04:02.079Z,17.60
2022-09-09T22:06:35.376Z,19.27
2022-09-09T22:09:03.878Z,18.98
2022-09-09T22:11:31.785Z,19.33
2022-09-09T22:14:01.159Z,18.55
2022-09-09T22:16:29.255Z,18.73
2022-09-09T22:19:00.416Z,19.20
2022-09-09T22:21:32.169Z,19.13
2022-09-09T22:24:06.144Z,18.73
2022-09-09T22:26:37.433Z,18.67
2022-09-09T22:29:07.018Z,19.23
2022-09-09T22:31:36.318Z,18.58
2022-09-09T22:34:04.945Z,20.08
2022-09-09T22:36:32.980Z,18.80
2022-09-09T22:39:01.212Z,19.15
2022-09-09T22:41:30.137Z,19.83
2022-09-09T22:43:59.132Z,20.38
2022-09-09T22:46:26.875Z,18.73
2022-09-09T22:48:54.664Z,19.35
2022-09-09T22:51:22.694Z,20.08
2022-09-09T22:53:50.508Z,19.15
2022-09-09T22:56:20.405Z,19.48
2022-09-09T22:58:52.815Z,20.02
2022-09-09T23:01:21.218Z,19.10
2022-09-09T23:03:50.699Z,18.73
2022-09-09T23:06:25.273Z,19.27
2022-09-09T23:08:57.232Z,19.65
2022-09-09T23:11:31.120Z,18.88
2022-09-09T23:14:02.590Z,19.77
2022-09-09T23:16:39.865Z,18.60
2022-09-09T23:19:16.312Z,20.02
2022-09-09T23:21:47.274Z,17.92
2022-09-09T23:24:17.741Z,18.15
2022-09-09T23:26:46.480Z,18.27
2022-09-09T23:29:15.122Z,18.35
2022-09-09T23:31:46.113Z,17.55
2022-09-09T23:34:14.345Z,18.33
2022-09-09T23:36:42.157Z,18.67
2022-09-09T23:39:13.149Z,18.20
2022-09-09T23:41:40.772Z,18.55
2022-09-09T23:44:09.089Z,17.92
2022-09-09T23:46:37.078Z,18.05
2022-09-09T23:49:05.129Z,17.73
2022-09-09T23:51:34.838Z,18.17
2022-09-09T23:56:37.812Z,16.27
2022-09-09T23:59:07.746Z,16.88
